Terminal Aerodrome Forecast
Issued by NWS

Home | Current Version | Previous Version | Text Only | Print | Product List | Glossary On
Versions: 1 2 3 4 5 6 7 8 9 10 11 12 13 14 15
000
FTUS42 KTBW 302344
TAFLAL
TAF
KLAL 302344Z 3100/3124 25006KT P6SM VCSH BKN090 BKN250
     FM310300 VRB03KT P6SM BKN150 BKN250
     FM311200 VRB03KT P6SM VCTS SCT035CB BKN250
     FM311400 22007KT P6SM VCTS SCT035CB BKN250
     FM311800 23009KT P6SM SHRA SCT040 BKN090
     FM312100 24010KT P6SM VCTS SCT040CB BKN120
      AMD NOT SKED 3103/3112=

USA.gov is the U.S. government's official web portal to all federal, state and local government web resources and services.